Time;durP1;ratioP1;P1;durP2;ratioP2;P2;SDS_P1;SDS_P2;PMS_P1;PMS_P2;Temp;Humidity;BMP_temperature;BMP_pressure;BME280_temperature;BME280_humidity;BME280_pressure;Samples;Min_cycle;Max_cycle;Signal;HPM_P1;HPM_P2
2024/01/14 00:00:58;;;;;;;70.45;19.52;;;0.80;99.90;;;;;;5072329;28;20127;-65
2024/01/14 00:03:23;;;;;;;71.70;26.20;;;0.70;99.90;;;;;;5065755;28;20194;-65
2024/01/14 00:05:49;;;;;;;75.30;21.17;;;0.70;99.90;;;;;;5069846;28;20506;-65
2024/01/14 00:08:15;;;;;;;77.70;22.70;;;0.70;99.90;;;;;;5074368;28;20037;-64
2024/01/14 00:10:40;;;;;;;53.25;18.27;;;0.80;99.90;;;;;;5075227;28;20089;-65
2024/01/14 00:13:06;;;;;;;57.10;16.50;;;0.80;99.90;;;;;;5072998;28;20102;-65
2024/01/14 00:15:31;;;;;;;78.40;22.58;;;0.80;99.90;;;;;;5073900;28;20028;-65
2024/01/14 00:17:57;;;;;;;65.43;19.33;;;0.80;99.90;;;;;;5075193;28;20387;-65
2024/01/14 00:20:23;;;;;;;65.75;20.08;;;0.80;99.90;;;;;;5074122;28;20040;-65
2024/01/14 00:22:48;;;;;;;61.45;16.42;;;0.80;99.90;;;;;;5075520;28;20533;-65
2024/01/14 00:25:14;;;;;;;43.55;13.23;;;0.80;99.90;;;;;;5072217;28;20992;-65
2024/01/14 00:27:40;;;;;;;68.88;19.55;;;0.90;99.90;;;;;;5078523;28;20081;-65
2024/01/14 00:30:06;;;;;;;44.25;14.70;;;0.90;99.90;;;;;;5074307;28;20039;-65
2024/01/14 00:32:32;;;;;;;75.35;20.67;;;0.90;99.90;;;;;;5073711;28;20110;-65
2024/01/14 00:34:58;;;;;;;48.13;17.63;;;0.90;99.90;;;;;;5072755;28;20067;-65
2024/01/14 00:37:24;;;;;;;69.43;19.77;;;0.90;99.90;;;;;;5074160;28;20065;-65
2024/01/14 00:39:50;;;;;;;58.15;23.13;;;0.90;99.90;;;;;;5077541;28;20046;-65
2024/01/14 00:42:16;;;;;;;59.25;17.17;;;0.90;99.90;;;;;;5085868;28;20605;-65
2024/01/14 00:44:42;;;;;;;65.03;22.40;;;0.90;99.90;;;;;;5079807;28;20073;-65
2024/01/14 00:47:08;;;;;;;68.05;25.23;;;0.90;99.90;;;;;;5084214;28;20124;-64
2024/01/14 00:49:34;;;;;;;58.83;20.40;;;0.90;99.90;;;;;;5079930;28;20119;-65
2024/01/14 00:51:59;;;;;;;60.40;21.80;;;0.90;99.90;;;;;;5076748;28;20032;-66
2024/01/14 00:54:25;;;;;;;81.35;31.50;;;0.90;99.90;;;;;;5076354;28;20436;-67
2024/01/14 00:56:51;;;;;;;42.28;14.93;;;0.90;99.90;;;;;;5076799;28;20047;-66
2024/01/14 00:59:16;;;;;;;65.10;19.52;;;0.90;99.90;;;;;;5079780;28;20028;-66
2024/01/14 01:01:42;;;;;;;56.60;15.15;;;0.90;99.90;;;;;;5077035;28;20045;-67
2024/01/14 01:04:08;;;;;;;46.95;14.32;;;0.90;99.90;;;;;;5077507;28;20024;-66
2024/01/14 01:06:33;;;;;;;60.00;20.33;;;0.90;99.90;;;;;;5081157;28;20291;-66
2024/01/14 01:09:00;;;;;;;48.55;13.40;;;0.90;99.90;;;;;;5079062;28;20059;-66
2024/01/14 01:11:26;;;;;;;75.47;22.45;;;0.90;99.90;;;;;;5078883;28;20544;-66
2024/01/14 01:13:51;;;;;;;65.35;16.50;;;0.90;99.90;;;;;;5079490;28;20031;-66
2024/01/14 01:16:17;;;;;;;78.15;28.48;;;0.90;99.90;;;;;;5075285;28;20392;-66
2024/01/14 01:18:43;;;;;;;72.13;20.88;;;0.80;99.90;;;;;;5079135;28;20024;-66
2024/01/14 01:21:09;;;;;;;72.30;20.15;;;0.80;99.90;;;;;;5084956;28;20024;-66
2024/01/14 01:23:35;;;;;;;62.25;19.52;;;0.90;99.90;;;;;;5078873;28;20043;-66
2024/01/14 01:26:00;;;;;;;49.47;14.40;;;0.90;99.90;;;;;;5076668;28;20032;-66
2024/01/14 01:28:26;;;;;;;59.50;20.73;;;0.80;99.90;;;;;;5080455;28;20462;-66
2024/01/14 01:30:52;;;;;;;58.20;17.70;;;0.80;99.90;;;;;;5075553;28;20036;-66
2024/01/14 01:33:17;;;;;;;68.15;19.45;;;0.80;99.90;;;;;;5077637;28;20027;-66
2024/01/14 01:35:43;;;;;;;61.67;19.27;;;0.80;99.90;;;;;;5075182;28;20050;-66
2024/01/14 01:38:09;;;;;;;54.35;16.33;;;0.80;99.90;;;;;;5078510;28;20063;-66
2024/01/14 01:40:34;;;;;;;47.78;14.57;;;0.80;99.90;;;;;;5079665;28;20032;-66
2024/01/14 01:43:00;;;;;;;69.97;21.25;;;0.80;99.90;;;;;;5083284;28;20115;-66
2024/01/14 01:45:25;;;;;;;63.08;19.00;;;0.80;99.90;;;;;;5075175;28;20052;-66
2024/01/14 01:47:51;;;;;;;60.85;17.15;;;0.80;99.90;;;;;;5077479;28;20501;-66
2024/01/14 01:50:17;;;;;;;42.67;13.43;;;0.80;99.90;;;;;;5073939;28;20025;-66
2024/01/14 01:52:43;;;;;;;52.92;17.70;;;0.80;99.90;;;;;;5080831;28;20034;-65
2024/01/14 01:55:10;;;;;;;57.33;16.75;;;0.80;99.90;;;;;;5081086;28;20035;-67
2024/01/14 01:57:37;;;;;;;59.60;17.55;;;0.90;99.90;;;;;;5081795;28;20130;-66
2024/01/14 02:00:03;;;;;;;59.22;23.33;;;0.80;99.90;;;;;;5083459;28;20467;-67
2024/01/14 02:02:29;;;;;;;47.75;15.63;;;0.90;99.90;;;;;;5078785;28;20102;-66
2024/01/14 02:04:55;;;;;;;79.07;27.48;;;0.90;99.90;;;;;;5082164;28;20032;-67
2024/01/14 02:07:20;;;;;;;69.35;21.17;;;0.90;99.90;;;;;;5082554;28;20028;-66
2024/01/14 02:09:47;;;;;;;67.90;20.20;;;0.90;99.90;;;;;;5081452;28;20089;-66
2024/01/14 02:12:13;;;;;;;74.28;22.10;;;0.90;99.90;;;;;;5082045;28;20396;-67
2024/01/14 02:14:38;;;;;;;57.65;17.50;;;0.90;99.90;;;;;;5082049;28;20031;-67
2024/01/14 02:17:04;;;;;;;73.93;21.13;;;0.90;99.90;;;;;;5080673;28;20025;-67
2024/01/14 02:19:29;;;;;;;63.95;18.92;;;0.90;99.90;;;;;;5083199;28;20016;-67
2024/01/14 02:22:17;;;;;;;45.42;17.50;;;0.90;99.90;;;;;;5079896;28;20028;-67
2024/01/14 02:24:43;;;;;;;60.72;17.15;;;0.90;99.90;;;;;;5096014;28;20064;-67
2024/01/14 02:27:09;;;;;;;34.92;10.32;;;0.90;99.90;;;;;;5080932;28;20030;-67
2024/01/14 02:29:37;;;;;;;61.65;17.58;;;0.90;99.90;;;;;;5088945;28;20180;-66
2024/01/14 02:32:03;;;;;;;51.75;16.83;;;0.90;99.90;;;;;;5078362;28;20102;-66
2024/01/14 02:34:29;;;;;;;58.13;25.25;;;0.90;99.90;;;;;;5081331;28;20253;-67
2024/01/14 02:36:55;;;;;;;56.17;16.92;;;0.90;99.90;;;;;;5086465;28;20108;-67
2024/01/14 02:39:21;;;;;;;61.72;19.85;;;0.90;99.90;;;;;;5082553;28;20031;-67
2024/01/14 02:41:46;;;;;;;61.35;17.73;;;0.80;99.90;;;;;;5079750;28;20043;-67
2024/01/14 02:44:12;;;;;;;34.97;14.65;;;0.80;99.90;;;;;;5083602;28;20113;-66
2024/01/14 02:46:40;;;;;;;52.58;15.65;;;0.90;99.90;;;;;;5080897;28;20028;-67
2024/01/14 02:49:06;;;;;;;51.10;15.93;;;0.80;99.90;;;;;;5082370;28;20558;-66
2024/01/14 02:51:32;;;;;;;35.92;12.32;;;0.90;99.90;;;;;;5080945;28;20028;-67
2024/01/14 02:53:57;;;;;;;63.65;17.92;;;0.90;99.90;;;;;;5083231;28;20062;-67
2024/01/14 02:56:23;;;;;;;46.67;13.30;;;0.90;99.90;;;;;;5083164;28;20027;-66
2024/01/14 02:58:49;;;;;;;51.17;16.55;;;0.80;99.90;;;;;;5082858;28;20498;-67
2024/01/14 03:01:14;;;;;;;53.05;15.75;;;0.80;99.90;;;;;;5086159;28;20032;-66
2024/01/14 03:03:40;;;;;;;52.55;14.40;;;0.90;99.90;;;;;;5080710;28;20507;-66
2024/01/14 03:06:06;;;;;;;46.42;18.25;;;0.90;99.90;;;;;;5081772;28;20024;-66
2024/01/14 03:08:31;;;;;;;38.63;10.98;;;0.90;99.90;;;;;;5084097;28;20596;-67
2024/01/14 03:10:57;;;;;;;48.92;16.65;;;0.90;99.90;;;;;;5083931;28;20024;-67
2024/01/14 03:13:22;;;;;;;54.92;16.30;;;0.90;99.90;;;;;;5080110;28;20032;-67
2024/01/14 03:15:48;;;;;;;47.70;13.43;;;0.80;99.90;;;;;;5087454;28;20539;-66
2024/01/14 03:18:15;;;;;;;26.70;9.60;;;0.80;99.90;;;;;;5082045;28;20131;-67
2024/01/14 03:20:41;;;;;;;55.88;20.52;;;0.80;99.90;;;;;;5078546;28;20066;-67
2024/01/14 03:23:07;;;;;;;48.65;14.38;;;0.80;99.90;;;;;;5079352;28;20113;-67
2024/01/14 03:25:33;;;;;;;63.40;20.45;;;0.80;99.90;;;;;;5081158;28;20154;-67
2024/01/14 03:27:59;;;;;;;33.92;11.40;;;0.80;99.90;;;;;;5081469;28;20510;-67
2024/01/14 03:30:24;;;;;;;59.35;17.77;;;0.70;99.90;;;;;;5078769;28;20029;-66
2024/01/14 03:32:50;;;;;;;40.45;12.18;;;0.70;99.90;;;;;;5081880;28;20039;-67
2024/01/14 03:35:16;;;;;;;49.60;14.98;;;0.70;99.90;;;;;;5089536;28;20036;-68
2024/01/14 03:37:41;;;;;;;48.00;16.33;;;0.70;99.90;;;;;;5083087;28;20024;-66
2024/01/14 03:40:09;;;;;;;45.03;13.20;;;0.70;99.90;;;;;;5082754;28;20459;-66
2024/01/14 03:42:35;;;;;;;40.38;16.10;;;0.70;99.90;;;;;;5079665;28;20031;-66
2024/01/14 03:45:01;;;;;;;49.00;16.40;;;0.70;99.90;;;;;;5087777;28;20028;-66
2024/01/14 03:47:27;;;;;;;50.20;18.73;;;0.80;99.90;;;;;;5082938;28;20028;-66
2024/01/14 03:49:52;;;;;;;60.90;16.92;;;0.80;99.90;;;;;;5081158;28;20081;-66
2024/01/14 03:52:18;;;;;;;61.95;18.02;;;0.80;99.90;;;;;;5080394;28;20111;-66
2024/01/14 03:54:43;;;;;;;53.20;22.08;;;2.90;99.90;;;;;;5076659;28;20344;-66
2024/01/14 03:57:09;;;;;;;56.80;18.45;;;0.80;99.90;;;;;;5078314;28;20024;-67
2024/01/14 03:59:34;;;;;;;65.88;18.48;;;0.80;99.90;;;;;;5082075;28;20047;-67
2024/01/14 04:02:01;;;;;;;58.58;18.10;;;0.80;99.90;;;;;;5078871;28;20689;-67
2024/01/14 04:04:26;;;;;;;62.92;22.02;;;0.80;99.90;;;;;;5088238;28;20020;-67
2024/01/14 04:06:53;;;;;;;43.30;13.07;;;0.80;99.90;;;;;;5087140;28;20086;-66
2024/01/14 04:09:18;;;;;;;39.17;13.70;;;0.80;99.90;;;;;;5076659;28;20436;-66
2024/01/14 04:11:44;;;;;;;54.33;15.13;;;0.80;99.90;;;;;;5082416;28;20059;-66
2024/01/14 04:14:09;;;;;;;41.40;17.63;;;0.80;99.90;;;;;;5077086;28;20028;-67
2024/01/14 04:16:36;;;;;;;37.15;12.95;;;0.90;99.90;;;;;;5081777;28;20031;-67
2024/01/14 04:19:02;;;;;;;46.90;14.35;;;0.90;99.90;;;;;;5085457;28;20069;-65
2024/01/14 04:21:28;;;;;;;54.63;15.88;;;0.90;99.90;;;;;;5081930;28;20032;-65
2024/01/14 04:23:53;;;;;;;47.65;15.40;;;0.90;99.90;;;;;;5078977;28;20029;-65
2024/01/14 04:26:21;;;;;;;56.70;17.13;;;0.90;99.90;;;;;;5076362;28;20502;-65
2024/01/14 04:28:47;;;;;;;45.70;16.58;;;0.90;99.90;;;;;;5079690;28;20027;-66
2024/01/14 04:31:13;;;;;;;47.60;15.80;;;0.90;99.90;;;;;;5077214;28;20036;-64
2024/01/14 04:33:38;;;;;;;43.38;14.57;;;0.80;99.90;;;;;;5076347;28;20032;-64
2024/01/14 04:36:04;;;;;;;44.13;14.77;;;0.90;99.90;;;;;;5073203;28;20111;-65
2024/01/14 04:38:30;;;;;;;47.88;15.43;;;0.90;99.90;;;;;;5073988;28;20143;-65
2024/01/14 04:40:56;;;;;;;25.48;10.23;;;0.90;99.90;;;;;;5069580;28;20472;-65
2024/01/14 04:43:21;;;;;;;37.47;12.95;;;0.90;99.90;;;;;;5077692;28;20372;-65
2024/01/14 04:45:47;;;;;;;39.70;13.32;;;0.90;99.90;;;;;;5084254;28;20218;-65
2024/01/14 04:48:13;;;;;;;31.80;12.38;;;0.90;99.90;;;;;;5079498;28;20038;-65
2024/01/14 04:50:40;;;;;;;40.60;14.93;;;0.90;99.90;;;;;;5066258;28;20420;-65
2024/01/14 04:53:06;;;;;;;32.83;12.43;;;0.80;99.90;;;;;;5079626;28;20055;-65
2024/01/14 04:55:32;;;;;;;40.45;14.07;;;0.90;99.90;;;;;;5077020;28;20028;-65
2024/01/14 04:57:57;;;;;;;46.38;15.55;;;0.80;99.90;;;;;;5081833;28;20039;-65
2024/01/14 05:00:23;;;;;;;41.10;15.10;;;0.80;99.90;;;;;;5072466;28;20012;-65
2024/01/14 05:02:49;;;;;;;51.17;15.65;;;0.90;99.90;;;;;;5075121;28;20490;-65
2024/01/14 05:05:15;;;;;;;32.90;13.43;;;0.90;99.90;;;;;;5078106;28;20059;-65
2024/01/14 05:07:41;;;;;;;35.53;13.23;;;0.90;99.90;;;;;;5080044;28;20557;-64
2024/01/14 05:10:08;;;;;;;37.85;14.98;;;0.90;99.90;;;;;;5070554;28;20487;-64
2024/01/14 05:12:33;;;;;;;43.28;17.13;;;0.90;99.90;;;;;;5073546;28;20035;-65
2024/01/14 05:14:59;;;;;;;41.50;16.48;;;0.90;99.90;;;;;;5078532;28;20025;-65
2024/01/14 05:17:25;;;;;;;44.72;14.38;;;0.90;99.90;;;;;;5079899;28;20098;-64
2024/01/14 05:19:51;;;;;;;57.53;17.83;;;0.80;99.90;;;;;;5076642;28;20016;-65
2024/01/14 05:22:17;;;;;;;54.78;17.95;;;0.80;99.90;;;;;;5078177;28;20411;-65
2024/01/14 05:24:43;;;;;;;79.57;34.30;;;0.80;99.90;;;;;;5076340;28;20025;-65
2024/01/14 05:27:11;;;;;;;66.30;19.38;;;0.80;99.90;;;;;;5084409;28;20031;-66
2024/01/14 05:29:43;;;;;;;65.65;18.88;;;0.80;99.90;;;;;;5077339;28;20032;-65
2024/01/14 05:32:14;;;;;;;59.28;18.88;;;0.80;99.90;;;;;;5078446;28;20036;-65
2024/01/14 05:34:40;;;;;;;69.65;22.15;;;0.90;99.90;;;;;;5076931;28;20020;-65
2024/01/14 05:37:06;;;;;;;61.20;17.08;;;0.80;99.90;;;;;;5086067;28;20035;-67
2024/01/14 05:39:35;;;;;;;56.53;18.83;;;0.80;99.90;;;;;;5081114;28;20039;-66
2024/01/14 05:42:01;;;;;;;71.03;23.15;;;0.80;99.90;;;;;;5078531;28;20021;-65
2024/01/14 05:44:27;;;;;;;57.85;20.48;;;0.80;99.90;;;;;;5082415;28;20032;-65
2024/01/14 05:46:53;;;;;;;67.10;18.77;;;0.90;99.90;;;;;;5081422;28;20034;-65
2024/01/14 05:49:20;;;;;;;60.22;23.40;;;0.80;99.90;;;;;;5083387;28;20585;-65
2024/01/14 05:51:46;;;;;;;66.25;17.52;;;0.80;99.90;;;;;;5083402;28;20534;-65
2024/01/14 05:54:12;;;;;;;70.65;24.63;;;0.80;99.90;;;;;;5079702;28;20099;-66
2024/01/14 05:56:37;;;;;;;65.00;18.73;;;0.80;99.90;;;;;;5080523;28;20508;-66
2024/01/14 05:59:03;;;;;;;50.38;12.00;;;0.80;99.90;;;;;;5072469;28;20021;-66
2024/01/14 06:01:29;;;;;;;75.90;20.17;;;0.80;99.90;;;;;;5075072;28;20598;-66
2024/01/14 06:03:55;;;;;;;48.05;16.25;;;0.90;99.90;;;;;;5085784;28;20028;-66
2024/01/14 06:06:21;;;;;;;67.13;18.83;;;0.80;99.90;;;;;;5081556;28;20424;-66
2024/01/14 06:08:47;;;;;;;69.47;25.48;;;0.80;99.90;;;;;;5078922;28;20709;-65
2024/01/14 06:11:13;;;;;;;61.50;19.33;;;0.80;99.90;;;;;;5081716;28;20028;-66
2024/01/14 06:13:39;;;;;;;75.32;22.23;;;0.80;99.90;;;;;;5083985;28;20020;-66
2024/01/14 06:16:05;;;;;;;58.97;18.70;;;0.80;99.90;;;;;;5078758;28;20074;-66
2024/01/14 06:18:31;;;;;;;78.70;21.42;;;0.80;99.90;;;;;;5082975;28;20844;-66
2024/01/14 06:20:59;;;;;;;48.08;16.23;;;0.80;99.90;;;;;;5079068;28;20024;-66
2024/01/14 06:23:25;;;;;;;62.63;18.35;;;0.80;99.90;;;;;;5072606;28;20454;-66
2024/01/14 06:25:51;;;;;;;53.30;19.08;;;0.80;99.90;;;;;;5079277;28;20029;-66
2024/01/14 06:28:17;;;;;;;65.47;19.08;;;0.80;99.90;;;;;;5080529;28;20498;-66
2024/01/14 06:30:42;;;;;;;84.25;24.20;;;0.80;99.90;;;;;;5079804;28;20056;-65
2024/01/14 06:33:09;;;;;;;73.18;21.58;;;0.80;99.90;;;;;;5080396;28;20051;-65
2024/01/14 06:35:35;;;;;;;88.18;24.23;;;0.80;99.90;;;;;;5082527;28;20028;-66
2024/01/14 06:38:00;;;;;;;87.65;26.42;;;0.70;99.90;;;;;;5085677;28;20404;-66
2024/01/14 06:40:26;;;;;;;80.35;25.85;;;0.70;99.90;;;;;;5080443;28;20084;-64
2024/01/14 06:42:52;;;;;;;63.90;18.08;;;0.70;99.90;;;;;;5079719;28;20024;-65
2024/01/14 06:45:18;;;;;;;45.95;14.65;;;0.80;99.90;;;;;;5084524;28;20047;-64
2024/01/14 06:47:43;;;;;;;72.57;22.80;;;0.80;99.90;;;;;;5075567;28;20524;-65
2024/01/14 06:50:10;;;;;;;75.47;22.25;;;0.80;99.90;;;;;;5075537;28;20025;-64
2024/01/14 06:52:37;;;;;;;85.22;21.60;;;0.80;99.90;;;;;;5078976;28;20021;-64
2024/01/14 06:55:06;;;;;;;51.67;15.32;;;0.80;99.90;;;;;;5082065;28;20108;-65
2024/01/14 06:57:32;;;;;;;59.63;19.63;;;0.80;99.90;;;;;;5074477;28;20074;-64
2024/01/14 06:59:59;;;;;;;57.47;15.25;;;0.70;99.90;;;;;;5077476;28;20016;-65
2024/01/14 07:02:25;;;;;;;78.45;23.08;;;0.80;99.90;;;;;;5075090;28;20507;-65
2024/01/14 07:04:51;;;;;;;66.47;19.73;;;0.80;99.90;;;;;;5081087;28;20145;-65
2024/01/14 07:07:17;;;;;;;64.43;19.63;;;0.80;99.90;;;;;;5080555;28;20125;-65
2024/01/14 07:09:42;;;;;;;60.70;22.33;;;0.80;99.90;;;;;;5080304;28;20032;-65
2024/01/14 07:12:08;;;;;;;60.15;19.45;;;0.80;99.90;;;;;;5087172;28;20035;-65
2024/01/14 07:14:34;;;;;;;59.58;18.60;;;0.80;99.90;;;;;;5085800;28;20435;-64
2024/01/14 07:16:59;;;;;;;58.70;17.90;;;0.70;99.90;;;;;;5081673;28;20028;-64
2024/01/14 07:19:25;;;;;;;50.92;17.10;;;0.70;99.90;;;;;;5080879;28;20027;-64
2024/01/14 07:21:51;;;;;;;54.83;17.52;;;0.70;99.90;;;;;;5078733;28;20024;-65
2024/01/14 07:24:16;;;;;;;63.40;17.27;;;0.70;99.90;;;;;;5078451;28;20074;-65
2024/01/14 07:26:42;;;;;;;64.03;19.92;;;0.70;99.90;;;;;;5079457;28;20117;-64
2024/01/14 07:29:08;;;;;;;48.10;16.40;;;0.70;99.90;;;;;;5076299;28;20021;-64
2024/01/14 07:31:33;;;;;;;45.85;15.85;;;0.80;99.90;;;;;;5080776;28;20052;-65
2024/01/14 07:33:59;;;;;;;51.35;16.35;;;0.80;99.90;;;;;;5086509;28;20051;-65
2024/01/14 07:36:25;;;;;;;35.53;11.88;;;0.80;99.90;;;;;;5054624;28;20044;-64
2024/01/14 07:38:52;;;;;;;59.25;19.48;;;0.80;99.90;;;;;;5081018;28;20027;-65
2024/01/14 07:41:18;;;;;;;53.88;15.73;;;0.80;99.90;;;;;;5074399;28;20103;-65
2024/01/14 07:43:44;;;;;;;42.72;14.75;;;0.70;99.90;;;;;;5077537;28;20551;-65
2024/01/14 07:46:10;;;;;;;67.35;20.50;;;0.70;99.90;;;;;;5078950;28;20425;-65
2024/01/14 07:48:36;;;;;;;68.28;28.77;;;0.80;99.90;;;;;;5080763;28;20029;-64
2024/01/14 07:51:03;;;;;;;48.90;16.70;;;0.80;99.90;;;;;;5080733;28;20020;-65
2024/01/14 07:53:28;;;;;;;69.07;19.33;;;0.80;99.90;;;;;;5087848;28;20036;-65
2024/01/14 07:55:54;;;;;;;55.17;18.80;;;0.80;99.90;;;;;;5077291;28;20418;-65
2024/01/14 07:58:20;;;;;;;59.83;19.40;;;0.80;99.90;;;;;;5079120;28;20507;-65
2024/01/14 08:00:45;;;;;;;75.47;19.35;;;0.80;99.90;;;;;;5079230;28;20051;-64
2024/01/14 08:03:11;;;;;;;44.20;15.48;;;0.70;99.90;;;;;;5075891;28;20063;-65
2024/01/14 08:05:40;;;;;;;53.33;17.17;;;0.80;99.90;;;;;;5085300;28;20475;-65
2024/01/14 08:08:06;;;;;;;57.00;21.55;;;0.90;99.90;;;;;;5079503;28;20098;-65
2024/01/14 08:10:35;;;;;;;78.55;23.15;;;0.80;99.90;;;;;;5079790;28;20514;-65
2024/01/14 08:13:01;;;;;;;72.60;20.00;;;0.80;99.90;;;;;;5081065;28;20024;-65
2024/01/14 08:15:27;;;;;;;54.83;17.77;;;0.80;99.90;;;;;;5076531;28;20077;-65
2024/01/14 08:17:53;;;;;;;74.07;22.10;;;0.90;99.90;;;;;;5080865;28;20031;-65
2024/01/14 08:20:18;;;;;;;60.15;17.77;;;0.80;99.90;;;;;;5077004;28;20024;-65
2024/01/14 08:22:44;;;;;;;53.97;16.08;;;0.90;99.90;;;;;;5073815;28;20028;-65
2024/01/14 08:25:10;;;;;;;82.25;23.60;;;0.80;99.90;;;;;;5076226;28;20031;-65
2024/01/14 08:27:37;;;;;;;52.70;15.52;;;0.90;99.90;;;;;;5078795;28;20028;-65
2024/01/14 08:30:04;;;;;;;47.15;13.85;;;0.90;99.90;;;;;;5080153;28;20020;-65
2024/01/14 08:32:30;;;;;;;71.75;20.20;;;0.90;99.90;;;;;;5073240;28;20068;-65
2024/01/14 08:34:55;;;;;;;38.00;13.10;;;0.90;99.90;;;;;;5075879;28;20071;-65
2024/01/14 08:37:21;;;;;;;40.05;10.80;;;0.90;99.90;;;;;;5066273;28;20029;-66
2024/01/14 08:39:48;;;;;;;60.70;18.58;;;0.80;99.90;;;;;;5071195;28;20476;-65
2024/01/14 08:42:13;;;;;;;53.95;16.38;;;0.80;99.90;;;;;;5073404;28;20016;-66
2024/01/14 08:44:39;;;;;;;66.95;25.33;;;0.80;99.90;;;;;;5072245;28;20023;-66
2024/01/14 08:47:05;;;;;;;50.17;15.95;;;0.80;99.90;;;;;;5079079;28;20132;-65
2024/01/14 08:49:30;;;;;;;74.20;27.27;;;0.80;99.90;;;;;;5075869;28;20078;-66
2024/01/14 08:51:56;;;;;;;53.22;15.60;;;0.80;99.90;;;;;;5074708;28;20483;-66
2024/01/14 08:54:25;;;;;;;61.25;19.20;;;0.80;99.90;;;;;;5076032;28;20036;-65
2024/01/14 08:56:50;;;;;;;66.07;18.75;;;0.80;99.90;;;;;;5071280;28;20038;-65
2024/01/14 08:59:16;;;;;;;57.65;16.23;;;0.80;99.90;;;;;;5075491;28;20107;-67
2024/01/14 09:01:41;;;;;;;67.82;20.17;;;0.80;99.90;;;;;;5063694;28;20876;-67
2024/01/14 09:04:07;;;;;;;75.90;18.90;;;0.90;99.90;;;;;;5071869;28;20021;-67
2024/01/14 09:06:35;;;;;;;55.03;15.63;;;0.90;99.90;;;;;;5078438;28;20059;-67
2024/01/14 09:09:00;;;;;;;66.55;19.88;;;0.90;99.90;;;;;;5076059;28;20139;-67
2024/01/14 09:11:26;;;;;;;45.83;15.32;;;0.90;99.90;;;;;;5074737;28;20104;-67
2024/01/14 09:13:52;;;;;;;57.80;18.08;;;0.90;99.90;;;;;;5071015;28;20013;-67
2024/01/14 09:16:17;;;;;;;41.35;15.55;;;0.90;99.90;;;;;;5072084;28;20024;-67
2024/01/14 09:18:43;;;;;;;65.70;20.63;;;0.90;99.90;;;;;;5081368;28;20024;-67
2024/01/14 09:21:08;;;;;;;62.67;17.88;;;0.90;99.90;;;;;;5077701;28;20020;-67
2024/01/14 09:23:34;;;;;;;52.78;18.10;;;0.90;99.90;;;;;;5073837;28;20074;-67
2024/01/14 09:25:59;;;;;;;57.88;18.05;;;0.90;99.90;;;;;;5069725;28;20515;-67
2024/01/14 09:28:25;;;;;;;46.97;14.57;;;0.90;99.90;;;;;;5075018;28;20024;-67
2024/01/14 09:30:51;;;;;;;63.78;18.95;;;0.90;99.90;;;;;;5066858;28;20039;-67
2024/01/14 09:33:17;;;;;;;59.42;20.20;;;0.90;99.90;;;;;;5070078;28;20047;-67
2024/01/14 09:35:43;;;;;;;57.00;17.67;;;0.80;99.90;;;;;;5070981;28;20016;-67
2024/01/14 09:38:09;;;;;;;48.10;15.82;;;0.80;99.90;;;;;;5073395;28;20568;-67
2024/01/14 09:40:38;;;;;;;42.72;15.10;;;0.90;99.90;;;;;;5077793;28;20379;-67
2024/01/14 09:43:06;;;;;;;46.38;14.98;;;0.80;99.90;;;;;;5075399;28;20016;-67
2024/01/14 09:45:34;;;;;;;56.05;16.48;;;0.90;99.90;;;;;;5077236;28;20067;-67
2024/01/14 09:48:01;;;;;;;51.42;15.27;;;0.90;99.90;;;;;;5079805;28;20028;-67
2024/01/14 09:50:28;;;;;;;36.40;11.85;;;0.80;99.90;;;;;;5075082;28;20028;-67
2024/01/14 09:52:57;;;;;;;45.55;14.93;;;0.80;99.90;;;;;;5077362;28;20133;-67
2024/01/14 09:55:26;;;;;;;51.08;14.18;;;0.80;99.90;;;;;;5082083;28;20016;-67
2024/01/14 09:57:52;;;;;;;64.05;17.38;;;0.80;99.90;;;;;;5071015;28;20477;-67
2024/01/14 10:00:23;;;;;;;51.97;16.85;;;0.80;99.90;;;;;;5070345;28;20028;-67
2024/01/14 10:02:48;;;;;;;46.28;16.73;;;0.80;99.90;;;;;;5071217;28;20040;-68
2024/01/14 10:05:16;;;;;;;42.78;14.65;;;0.80;99.90;;;;;;5066573;28;20178;-67
2024/01/14 10:07:44;;;;;;;53.72;17.38;;;0.80;99.90;;;;;;5076548;28;20485;-67
2024/01/14 10:10:09;;;;;;;47.08;15.45;;;0.80;99.90;;;;;;5069431;28;20068;-66
2024/01/14 10:12:36;;;;;;;57.95;20.45;;;0.80;99.90;;;;;;5081603;28;20618;-66
2024/01/14 10:15:02;;;;;;;37.25;11.40;;;0.80;99.90;;;;;;5080935;28;20034;-66
2024/01/14 10:17:29;;;;;;;25.75;9.05;;;0.80;99.90;;;;;;5084522;28;20028;-66
2024/01/14 10:19:57;;;;;;;44.80;16.00;;;0.80;99.90;;;;;;5074861;28;20135;-66
2024/01/14 10:22:25;;;;;;;39.22;14.05;;;0.80;99.90;;;;;;5070900;28;20031;-66
2024/01/14 10:24:52;;;;;;;39.75;12.77;;;0.90;99.90;;;;;;5079683;28;20027;-66
2024/01/14 10:27:19;;;;;;;36.22;13.25;;;0.90;99.90;;;;;;5077364;28;20464;-66
2024/01/14 10:29:45;;;;;;;46.85;13.55;;;0.90;99.90;;;;;;5081514;28;20030;-67
2024/01/14 10:32:11;;;;;;;37.53;12.38;;;0.90;99.90;;;;;;5069968;28;20107;-66
2024/01/14 10:34:36;;;;;;;44.25;19.95;;;0.90;99.90;;;;;;5079120;28;20464;-66
2024/01/14 10:37:03;;;;;;;31.80;12.80;;;0.80;99.90;;;;;;5078694;28;20021;-66
2024/01/14 10:39:32;;;;;;;33.60;10.07;;;0.80;99.90;;;;;;5077463;28;20020;-65
2024/01/14 10:41:59;;;;;;;29.35;9.82;;;0.80;99.90;;;;;;5076911;28;20107;-65
2024/01/14 10:44:25;;;;;;;41.28;11.85;;;0.80;99.90;;;;;;5076612;28;20885;-65
2024/01/14 10:46:53;;;;;;;40.03;12.15;;;0.80;99.90;;;;;;5080953;28;20107;-65
2024/01/14 10:49:26;;;;;;;38.80;12.70;;;0.80;99.90;;;;;;5075420;28;20138;-66
2024/01/14 10:52:15;;;;;;;37.58;16.27;;;0.80;99.90;;;;;;5078335;28;20012;-65
2024/01/14 10:54:47;;;;;;;39.75;11.60;;;0.80;99.90;;;;;;5073791;28;20456;-65
2024/01/14 10:57:24;;;;;;;33.22;10.98;;;0.80;99.90;;;;;;5066719;28;21610;-65
2024/01/14 10:59:56;;;;;;;43.33;14.32;;;0.70;99.90;;;;;;5076069;28;20029;-66
2024/01/14 11:02:22;;;;;;;31.88;12.35;;;0.70;99.90;;;;;;5073484;28;20638;-66
2024/01/14 11:04:49;;;;;;;32.08;10.85;;;0.70;99.90;;;;;;5073590;28;20034;-66
2024/01/14 11:07:15;;;;;;;38.50;13.95;;;0.80;99.90;;;;;;5079511;28;20040;-66
2024/01/14 11:09:41;;;;;;;41.42;12.52;;;0.80;99.90;;;;;;5073011;28;20020;-66
2024/01/14 11:12:14;;;;;;;42.17;14.13;;;0.80;99.90;;;;;;5079395;28;20035;-65
2024/01/14 11:15:01;;;;;;;34.97;8.68;;;0.80;99.90;;;;;;5068254;28;20090;-66
2024/01/14 11:17:44;;;;;;;23.42;7.82;;;0.80;99.90;;;;;;5074370;28;20047;-65
2024/01/14 11:20:18;;;;;;;33.10;10.82;;;0.80;99.90;;;;;;5079328;28;20025;-66
2024/01/14 11:22:44;;;;;;;33.38;12.73;;;0.80;99.90;;;;;;5094204;28;20020;-65
2024/01/14 11:25:15;;;;;;;29.50;10.35;;;0.80;99.90;;;;;;5075960;28;20066;-65
2024/01/14 11:27:41;;;;;;;29.25;10.45;;;0.80;99.90;;;;;;5076264;28;20031;-65
2024/01/14 11:30:17;;;;;;;23.15;7.55;;;0.80;99.90;;;;;;5078491;28;20016;-65
2024/01/14 11:32:43;;;;;;;27.83;10.27;;;0.80;99.90;;;;;;5069010;28;20020;-65
2024/01/14 11:35:10;;;;;;;28.85;10.05;;;0.80;99.90;;;;;;5068476;28;20028;-65
2024/01/14 11:37:48;;;;;;;22.95;8.93;;;0.80;99.90;;;;;;5064867;28;20040;-66
2024/01/14 11:40:16;;;;;;;31.95;9.48;;;0.80;99.90;;;;;;5081268;28;20016;-65
2024/01/14 11:42:49;;;;;;;26.30;9.38;;;0.90;99.90;;;;;;5072796;28;20024;-65
2024/01/14 11:45:24;;;;;;;24.30;6.47;;;0.90;99.90;;;;;;5076935;28;20418;-65
2024/01/14 11:47:54;;;;;;;24.20;9.35;;;0.90;99.90;;;;;;5069904;28;20120;-65
2024/01/14 11:50:20;;;;;;;;;;;0.90;99.90;;;;;;5091821;28;20530;-65
2024/01/14 11:52:51;;;;;;;20.58;6.97;;;0.90;99.90;;;;;;5072190;28;19911;-65
2024/01/14 11:55:18;;;;;;;22.58;7.53;;;0.90;99.90;;;;;;5075210;28;20066;-65
2024/01/14 11:57:44;;;;;;;22.40;8.75;;;0.90;99.90;;;;;;5079707;28;20390;-66
2024/01/14 12:00:11;;;;;;;17.73;6.53;;;0.90;99.90;;;;;;5072042;28;20016;-65
2024/01/14 12:02:37;;;;;;;25.65;8.45;;;0.90;99.90;;;;;;5076187;28;20094;-66
2024/01/14 12:05:32;;;;;;;22.98;8.07;;;1.00;99.90;;;;;;5073983;28;20028;-65
2024/01/14 12:08:00;;;;;;;11.40;3.45;;;1.00;99.90;;;;;;5060022;28;20051;-65
2024/01/14 12:10:26;;;;;;;23.40;7.65;;;1.00;99.90;;;;;;5077985;28;20078;-65
2024/01/14 12:12:52;;;;;;;11.18;4.32;;;1.00;99.90;;;;;;5072950;28;20033;-66
2024/01/14 12:15:18;;;;;;;18.83;7.50;;;0.90;99.90;;;;;;5077075;28;20027;-65
2024/01/14 12:17:57;;;;;;;17.02;7.38;;;0.90;99.90;;;;;;5080058;28;20032;-65
2024/01/14 12:20:23;;;;;;;14.48;5.88;;;0.90;99.90;;;;;;5076433;28;20086;-66
2024/01/14 12:23:04;;;;;;;18.95;5.65;;;0.90;99.90;;;;;;5081466;28;20055;-66
2024/01/14 12:25:31;;;;;;;16.83;5.75;;;0.80;99.90;;;;;;5084616;28;20021;-65
2024/01/14 12:27:57;;;;;;;18.50;7.10;;;0.70;99.90;;;;;;5076905;28;20061;-65
2024/01/14 12:30:27;;;;;;;20.25;7.10;;;0.60;99.90;;;;;;5073364;28;20696;-65
2024/01/14 12:32:52;;;;;;;;;;;0.50;99.90;;;;;;5075832;28;20365;-65
2024/01/14 12:35:18;;;;;;;21.17;7.03;;;0.50;99.90;;;;;;5071110;28;19919;-65